Capitol Logistics 2186

Operating for AJT



KPHL
Philadelphia International Airport
Philadelphia, Pennsylvania
KONT
Ontario International Airport
Ontario, California

Activity Log

Date Flight Route Aircraft Duration
No Flights Yet

Route Details

Aircraft Information
Primary: Boeing 767-300BDSF
Backup: Airbus A300-600F
Route Data
Distance: 2045nm
Duration: 5h 15m
Recm'd Route: MXE PENSY J110 BEETS Q430 AIR ROD BVT BDF FOD J94 BFF J157 LAR SAKES BLD Q114 NATEE JCKIE2
Origin Wx: KPHL 020354Z 22004KT 10SM SCT090 BKN140 BKN200 18/16 A2987 RMK AO2 SLP113 T01830161 $
Dest. Wx: KONT 020353Z 25007KT 10SM CLR 27/06 A3002 RMK AO2 SLP149 T02720061
Notes: